sensor_id;sensor_type;location;lat;lon;timestamp;pressure;altitude;pressure_sealevel;temperature;humidity
29505;BME280;16452;54.174;12.092;2023-01-09T00:01:48;99676.41;;;9.38;100.00
29505;BME280;16452;54.174;12.092;2023-01-09T00:04:14;99678.53;;;9.19;100.00
29505;BME280;16452;54.174;12.092;2023-01-09T00:06:40;99673.84;;;9.12;100.00
29505;BME280;16452;54.174;12.092;2023-01-09T00:09:09;99675.94;;;9.19;100.00
29505;BME280;16452;54.174;12.092;2023-01-09T00:11:35;99682.25;;;8.88;100.00
29505;BME280;16452;54.174;12.092;2023-01-09T00:14:01;99682.63;;;8.68;100.00
29505;BME280;16452;54.174;12.092;2023-01-09T00:16:27;99687.00;;;9.08;100.00
29505;BME280;16452;54.174;12.092;2023-01-09T00:18:53;99681.25;;;9.03;100.00
29505;BME280;16452;54.174;12.092;2023-01-09T00:21:19;99676.81;;;9.05;100.00
29505;BME280;16452;54.174;12.092;2023-01-09T00:23:45;99670.34;;;8.98;100.00
29505;BME280;16452;54.174;12.092;2023-01-09T00:26:15;99661.63;;;8.99;100.00
29505;BME280;16452;54.174;12.092;2023-01-09T00:28:43;99666.44;;;8.91;100.00
29505;BME280;16452;54.174;12.092;2023-01-09T00:31:10;99665.72;;;8.89;100.00
29505;BME280;16452;54.174;12.092;2023-01-09T00:33:50;99670.34;;;8.98;100.00
29505;BME280;16452;54.174;12.092;2023-01-09T00:36:17;99656.56;;;8.84;100.00
29505;BME280;16452;54.174;12.092;2023-01-09T00:38:46;99647.56;;;8.89;100.00
29505;BME280;16452;54.174;12.092;2023-01-09T00:41:22;99651.69;;;8.65;100.00
29505;BME280;16452;54.174;12.092;2023-01-09T00:43:53;99643.44;;;8.73;100.00
29505;BME280;16452;54.174;12.092;2023-01-09T00:46:23;99637.97;;;8.63;100.00
29505;BME280;16452;54.174;12.092;2023-01-09T00:48:51;99636.94;;;8.65;100.00
29505;BME280;16452;54.174;12.092;2023-01-09T00:51:19;99639.09;;;8.59;100.00
29505;BME280;16452;54.174;12.092;2023-01-09T00:53:45;99642.97;;;8.52;100.00
29505;BME280;16452;54.174;12.092;2023-01-09T00:56:16;99642.25;;;8.36;100.00
29505;BME280;16452;54.174;12.092;2023-01-09T00:58:43;99637.78;;;8.52;100.00
29505;BME280;16452;54.174;12.092;2023-01-09T01:01:09;99635.41;;;8.20;100.00
29505;BME280;16452;54.174;12.092;2023-01-09T01:03:34;99640.00;;;8.30;100.00
29505;BME280;16452;54.174;12.092;2023-01-09T01:06:00;99640.22;;;8.27;100.00
29505;BME280;16452;54.174;12.092;2023-01-09T01:08:45;99643.72;;;8.25;100.00
29505;BME280;16452;54.174;12.092;2023-01-09T01:11:11;99644.78;;;8.37;100.00
29505;BME280;16452;54.174;12.092;2023-01-09T01:13:39;99641.25;;;8.38;100.00
29505;BME280;16452;54.174;12.092;2023-01-09T01:16:11;99641.44;;;8.35;100.00
29505;BME280;16452;54.174;12.092;2023-01-09T01:18:38;99644.19;;;8.18;100.00
29505;BME280;16452;54.174;12.092;2023-01-09T01:21:09;99640.09;;;8.00;100.00
29505;BME280;16452;54.174;12.092;2023-01-09T01:23:36;99651.16;;;8.32;100.00
29505;BME280;16452;54.174;12.092;2023-01-09T01:26:16;99648.00;;;8.27;100.00
29505;BME280;16452;54.174;12.092;2023-01-09T01:28:42;99645.59;;;8.38;100.00
29505;BME280;16452;54.174;12.092;2023-01-09T01:31:15;99642.41;;;8.04;100.00
29505;BME280;16452;54.174;12.092;2023-01-09T01:33:41;99635.22;;;8.09;100.00
29505;BME280;16452;54.174;12.092;2023-01-09T01:36:08;99641.22;;;8.24;100.00
29505;BME280;16452;54.174;12.092;2023-01-09T01:38:34;99634.91;;;7.86;100.00
29505;BME280;16452;54.174;12.092;2023-01-09T01:41:01;99643.97;;;7.93;100.00
29505;BME280;16452;54.174;12.092;2023-01-09T01:46:17;99637.53;;;8.14;100.00
29505;BME280;16452;54.174;12.092;2023-01-09T01:48:43;99637.88;;;8.08;100.00
29505;BME280;16452;54.174;12.092;2023-01-09T01:51:11;99634.06;;;7.99;100.00
29505;BME280;16452;54.174;12.092;2023-01-09T01:53:52;99636.84;;;8.10;100.00
29505;BME280;16452;54.174;12.092;2023-01-09T01:56:31;99637.22;;;8.18;100.00
29505;BME280;16452;54.174;12.092;2023-01-09T01:59:12;99634.63;;;8.18;100.00
29505;BME280;16452;54.174;12.092;2023-01-09T02:01:41;99633.84;;;8.32;100.00
29505;BME280;16452;54.174;12.092;2023-01-09T02:04:08;99625.47;;;8.13;100.00
29505;BME280;16452;54.174;12.092;2023-01-09T02:06:35;99614.06;;;8.30;100.00
29505;BME280;16452;54.174;12.092;2023-01-09T02:09:04;99615.75;;;8.02;100.00
29505;BME280;16452;54.174;12.092;2023-01-09T02:11:30;99608.25;;;8.12;100.00
29505;BME280;16452;54.174;12.092;2023-01-09T02:13:57;99602.38;;;8.22;100.00
29505;BME280;16452;54.174;12.092;2023-01-09T02:16:44;99593.97;;;8.19;100.00
29505;BME280;16452;54.174;12.092;2023-01-09T02:25:54;99591.28;;;8.20;100.00
29505;BME280;16452;54.174;12.092;2023-01-09T02:42:43;99592.47;;;7.87;100.00
29505;BME280;16452;54.174;12.092;2023-01-09T02:45:10;99586.19;;;7.91;100.00
29505;BME280;16452;54.174;12.092;2023-01-09T02:47:40;99587.41;;;7.85;100.00
29505;BME280;16452;54.174;12.092;2023-01-09T02:50:17;99586.38;;;7.88;100.00
29505;BME280;16452;54.174;12.092;2023-01-09T02:56:34;99593.03;;;8.06;100.00
29505;BME280;16452;54.174;12.092;2023-01-09T02:59:19;99585.56;;;8.01;100.00
29505;BME280;16452;54.174;12.092;2023-01-09T03:02:33;99578.22;;;8.08;100.00
29505;BME280;16452;54.174;12.092;2023-01-09T03:05:30;99588.41;;;7.82;100.00
29505;BME280;16452;54.174;12.092;2023-01-09T03:08:22;99587.31;;;7.72;100.00
29505;BME280;16452;54.174;12.092;2023-01-09T03:11:03;99583.69;;;7.89;100.00
29505;BME280;16452;54.174;12.092;2023-01-09T03:13:54;99586.50;;;7.86;100.00
29505;BME280;16452;54.174;12.092;2023-01-09T03:16:32;99591.25;;;7.64;100.00
29505;BME280;16452;54.174;12.092;2023-01-09T03:19:01;99591.94;;;7.67;100.00
29505;BME280;16452;54.174;12.092;2023-01-09T03:21:30;99597.69;;;7.42;100.00
29505;BME280;16452;54.174;12.092;2023-01-09T03:23:59;99591.00;;;7.82;100.00
29505;BME280;16452;54.174;12.092;2023-01-09T03:26:27;99594.25;;;7.72;100.00
29505;BME280;16452;54.174;12.092;2023-01-09T03:28:54;99587.47;;;7.55;100.00
29505;BME280;16452;54.174;12.092;2023-01-09T03:31:20;99585.81;;;7.68;100.00
29505;BME280;16452;54.174;12.092;2023-01-09T03:33:46;99590.78;;;7.57;100.00
29505;BME280;16452;54.174;12.092;2023-01-09T03:36:13;99592.31;;;7.46;100.00
29505;BME280;16452;54.174;12.092;2023-01-09T03:38:39;99589.41;;;7.66;100.00
29505;BME280;16452;54.174;12.092;2023-01-09T03:41:05;99584.88;;;7.69;100.00
29505;BME280;16452;54.174;12.092;2023-01-09T03:43:31;99573.69;;;7.83;100.00
29505;BME280;16452;54.174;12.092;2023-01-09T03:45:57;99573.94;;;7.64;100.00
29505;BME280;16452;54.174;12.092;2023-01-09T03:48:23;99576.53;;;7.64;100.00
29505;BME280;16452;54.174;12.092;2023-01-09T03:50:51;99568.59;;;7.81;100.00
29505;BME280;16452;54.174;12.092;2023-01-09T03:53:19;99567.09;;;7.49;100.00
29505;BME280;16452;54.174;12.092;2023-01-09T03:55:50;99575.53;;;7.67;100.00
29505;BME280;16452;54.174;12.092;2023-01-09T03:58:23;99578.84;;;7.69;100.00
29505;BME280;16452;54.174;12.092;2023-01-09T04:00:50;99574.09;;;7.47;100.00
29505;BME280;16452;54.174;12.092;2023-01-09T04:03:18;99579.81;;;7.68;100.00
29505;BME280;16452;54.174;12.092;2023-01-09T04:05:46;99572.56;;;7.59;100.00
29505;BME280;16452;54.174;12.092;2023-01-09T04:08:13;99567.47;;;7.71;100.00
29505;BME280;16452;54.174;12.092;2023-01-09T04:10:39;99561.47;;;7.57;100.00
29505;BME280;16452;54.174;12.092;2023-01-09T04:13:05;99553.22;;;7.78;100.00
29505;BME280;16452;54.174;12.092;2023-01-09T04:15:30;99548.41;;;7.87;100.00
29505;BME280;16452;54.174;12.092;2023-01-09T04:17:56;99544.34;;;7.68;100.00
29505;BME280;16452;54.174;12.092;2023-01-09T04:20:22;99540.00;;;7.83;100.00
29505;BME280;16452;54.174;12.092;2023-01-09T04:22:47;99551.22;;;7.98;100.00
29505;BME280;16452;54.174;12.092;2023-01-09T04:25:13;99540.19;;;7.80;100.00
29505;BME280;16452;54.174;12.092;2023-01-09T04:27:39;99545.06;;;7.70;100.00
29505;BME280;16452;54.174;12.092;2023-01-09T04:30:05;99548.22;;;7.75;100.00
29505;BME280;16452;54.174;12.092;2023-01-09T04:32:31;99543.59;;;7.80;100.00
29505;BME280;16452;54.174;12.092;2023-01-09T04:34:57;99537.28;;;8.13;100.00
29505;BME280;16452;54.174;12.092;2023-01-09T04:37:23;99534.81;;;7.97;100.00
29505;BME280;16452;54.174;12.092;2023-01-09T04:39:50;99532.47;;;7.93;100.00
29505;BME280;16452;54.174;12.092;2023-01-09T04:42:20;99524.88;;;8.04;100.00
29505;BME280;16452;54.174;12.092;2023-01-09T04:44:46;99520.13;;;8.10;100.00
29505;BME280;16452;54.174;12.092;2023-01-09T04:47:11;99513.72;;;8.16;100.00
29505;BME280;16452;54.174;12.092;2023-01-09T04:49:38;99521.28;;;7.92;100.00
29505;BME280;16452;54.174;12.092;2023-01-09T04:52:04;99512.69;;;7.77;100.00
29505;BME280;16452;54.174;12.092;2023-01-09T04:54:30;99511.47;;;7.97;100.00
29505;BME280;16452;54.174;12.092;2023-01-09T04:56:56;99507.47;;;8.06;100.00
29505;BME280;16452;54.174;12.092;2023-01-09T04:59:22;99513.66;;;8.17;100.00
29505;BME280;16452;54.174;12.092;2023-01-09T05:01:48;99498.53;;;8.24;100.00
29505;BME280;16452;54.174;12.092;2023-01-09T05:04:13;99495.19;;;8.22;100.00
29505;BME280;16452;54.174;12.092;2023-01-09T05:06:39;99498.25;;;8.29;100.00
29505;BME280;16452;54.174;12.092;2023-01-09T05:09:05;99494.09;;;8.26;100.00
29505;BME280;16452;54.174;12.092;2023-01-09T05:11:30;99488.78;;;8.27;100.00
29505;BME280;16452;54.174;12.092;2023-01-09T05:13:56;99480.28;;;8.25;100.00
29505;BME280;16452;54.174;12.092;2023-01-09T05:16:22;99476.09;;;8.23;100.00
29505;BME280;16452;54.174;12.092;2023-01-09T05:18:48;99475.47;;;8.34;100.00
29505;BME280;16452;54.174;12.092;2023-01-09T05:21:14;99470.38;;;8.32;100.00
29505;BME280;16452;54.174;12.092;2023-01-09T05:23:39;99468.03;;;8.42;100.00
29505;BME280;16452;54.174;12.092;2023-01-09T05:26:05;99464.41;;;8.44;100.00
29505;BME280;16452;54.174;12.092;2023-01-09T05:28:31;99456.72;;;8.43;100.00
29505;BME280;16452;54.174;12.092;2023-01-09T05:30:57;99457.59;;;8.56;100.00
29505;BME280;16452;54.174;12.092;2023-01-09T05:33:23;99449.59;;;8.59;100.00
29505;BME280;16452;54.174;12.092;2023-01-09T05:35:48;99440.06;;;8.59;100.00
29505;BME280;16452;54.174;12.092;2023-01-09T05:38:15;99436.41;;;8.49;100.00
29505;BME280;16452;54.174;12.092;2023-01-09T05:40:40;99439.19;;;8.46;100.00
29505;BME280;16452;54.174;12.092;2023-01-09T05:43:06;99440.63;;;8.50;100.00
29505;BME280;16452;54.174;12.092;2023-01-09T05:45:35;99433.00;;;8.61;100.00
29505;BME280;16452;54.174;12.092;2023-01-09T05:48:01;99435.75;;;8.46;100.00
29505;BME280;16452;54.174;12.092;2023-01-09T05:50:27;99426.44;;;8.29;100.00
29505;BME280;16452;54.174;12.092;2023-01-09T05:52:53;99437.66;;;8.30;100.00
29505;BME280;16452;54.174;12.092;2023-01-09T05:55:19;99444.06;;;8.24;100.00
29505;BME280;16452;54.174;12.092;2023-01-09T05:57:44;99456.38;;;8.35;100.00
29505;BME280;16452;54.174;12.092;2023-01-09T06:00:11;99449.78;;;8.43;100.00
29505;BME280;16452;54.174;12.092;2023-01-09T06:02:37;99447.03;;;8.32;100.00
29505;BME280;16452;54.174;12.092;2023-01-09T06:05:02;99461.84;;;8.30;100.00
29505;BME280;16452;54.174;12.092;2023-01-09T06:07:28;99465.56;;;8.26;100.00
29505;BME280;16452;54.174;12.092;2023-01-09T06:09:54;99476.25;;;8.07;100.00
29505;BME280;16452;54.174;12.092;2023-01-09T06:12:20;99470.22;;;8.21;100.00
29505;BME280;16452;54.174;12.092;2023-01-09T06:14:45;99472.50;;;8.25;100.00
29505;BME280;16452;54.174;12.092;2023-01-09T06:17:11;99479.94;;;8.17;100.00
29505;BME280;16452;54.174;12.092;2023-01-09T06:19:37;99484.88;;;8.08;100.00
29505;BME280;16452;54.174;12.092;2023-01-09T06:22:03;99480.63;;;7.93;100.00
29505;BME280;16452;54.174;12.092;2023-01-09T06:24:28;99476.88;;;8.11;100.00
29505;BME280;16452;54.174;12.092;2023-01-09T06:26:54;99474.44;;;8.22;100.00
29505;BME280;16452;54.174;12.092;2023-01-09T06:29:20;99473.69;;;8.34;100.00
29505;BME280;16452;54.174;12.092;2023-01-09T06:31:46;99466.06;;;8.45;100.00
29505;BME280;16452;54.174;12.092;2023-01-09T06:34:11;99471.97;;;8.20;100.00
29505;BME280;16452;54.174;12.092;2023-01-09T06:36:37;99476.03;;;8.10;100.00
29505;BME280;16452;54.174;12.092;2023-01-09T06:39:03;99474.66;;;8.05;100.00
29505;BME280;16452;54.174;12.092;2023-01-09T06:41:29;99462.69;;;8.31;100.00
29505;BME280;16452;54.174;12.092;2023-01-09T06:43:54;99465.06;;;8.34;100.00
29505;BME280;16452;54.174;12.092;2023-01-09T06:46:20;99463.78;;;8.27;100.00
29505;BME280;16452;54.174;12.092;2023-01-09T06:48:46;99457.44;;;8.45;100.00
29505;BME280;16452;54.174;12.092;2023-01-09T06:51:11;99457.66;;;8.42;100.00
29505;BME280;16452;54.174;12.092;2023-01-09T06:53:37;99459.38;;;8.55;100.00
29505;BME280;16452;54.174;12.092;2023-01-09T06:56:03;99464.81;;;8.24;100.00
29505;BME280;16452;54.174;12.092;2023-01-09T06:58:29;99459.41;;;8.41;100.00
29505;BME280;16452;54.174;12.092;2023-01-09T07:00:57;99456.59;;;8.17;100.00
29505;BME280;16452;54.174;12.092;2023-01-09T07:03:23;99455.66;;;8.18;100.00
29505;BME280;16452;54.174;12.092;2023-01-09T07:05:49;99459.25;;;8.16;100.00
29505;BME280;16452;54.174;12.092;2023-01-09T07:08:15;99465.56;;;8.26;100.00
29505;BME280;16452;54.174;12.092;2023-01-09T07:10:44;99465.06;;;7.93;100.00
29505;BME280;16452;54.174;12.092;2023-01-09T07:13:10;99464.38;;;8.17;100.00
29505;BME280;16452;54.174;12.092;2023-01-09T07:15:36;99465.19;;;8.32;100.00
29505;BME280;16452;54.174;12.092;2023-01-09T07:18:02;99462.75;;;8.43;100.00
29505;BME280;16452;54.174;12.092;2023-01-09T07:20:28;99463.53;;;8.31;100.00
29505;BME280;16452;54.174;12.092;2023-01-09T07:22:54;99472.84;;;8.34;100.00
29505;BME280;16452;54.174;12.092;2023-01-09T07:25:20;99463.59;;;8.44;100.00
29505;BME280;16452;54.174;12.092;2023-01-09T07:27:46;99473.34;;;8.26;100.00
29505;BME280;16452;54.174;12.092;2023-01-09T07:30:13;99481.50;;;8.20;100.00
29505;BME280;16452;54.174;12.092;2023-01-09T07:32:38;99476.66;;;8.42;100.00
29505;BME280;16452;54.174;12.092;2023-01-09T07:35:07;99471.22;;;8.33;100.00
29505;BME280;16452;54.174;12.092;2023-01-09T07:37:33;99476.13;;;8.37;100.00
29505;BME280;16452;54.174;12.092;2023-01-09T07:39:59;99482.22;;;8.22;100.00
29505;BME280;16452;54.174;12.092;2023-01-09T07:42:25;99490.72;;;7.97;100.00
29505;BME280;16452;54.174;12.092;2023-01-09T07:44:51;99487.09;;;8.14;100.00
29505;BME280;16452;54.174;12.092;2023-01-09T07:47:17;99486.88;;;8.17;100.00
29505;BME280;16452;54.174;12.092;2023-01-09T07:49:42;99485.47;;;8.25;100.00
29505;BME280;16452;54.174;12.092;2023-01-09T07:52:08;99486.16;;;8.15;100.00
29505;BME280;16452;54.174;12.092;2023-01-09T07:54:34;99484.50;;;8.14;100.00
29505;BME280;16452;54.174;12.092;2023-01-09T07:57:00;99492.81;;;8.19;100.00
29505;BME280;16452;54.174;12.092;2023-01-09T07:59:25;99492.44;;;8.11;100.00
29505;BME280;16452;54.174;12.092;2023-01-09T08:01:54;99496.63;;;8.13;100.00
29505;BME280;16452;54.174;12.092;2023-01-09T08:04:21;99497.91;;;8.20;100.00
29505;BME280;16452;54.174;12.092;2023-01-09T08:06:47;99497.88;;;8.35;100.00
29505;BME280;16452;54.174;12.092;2023-01-09T08:09:13;99505.75;;;8.33;100.00
29505;BME280;16452;54.174;12.092;2023-01-09T08:11:40;99503.81;;;8.22;100.00
29505;BME280;16452;54.174;12.092;2023-01-09T08:14:06;99499.75;;;8.33;100.00
29505;BME280;16452;54.174;12.092;2023-01-09T08:16:31;99526.75;;;8.02;100.00
29505;BME280;16452;54.174;12.092;2023-01-09T08:18:57;99518.03;;;7.89;100.00
29505;BME280;16452;54.174;12.092;2023-01-09T08:21:23;99513.66;;;8.32;100.00
29505;BME280;16452;54.174;12.092;2023-01-09T08:23:49;99516.03;;;8.35;100.00
29505;BME280;16452;54.174;12.092;2023-01-09T08:26:15;99514.31;;;8.21;100.00
29505;BME280;16452;54.174;12.092;2023-01-09T08:28:40;99513.66;;;8.32;100.00
29505;BME280;16452;54.174;12.092;2023-01-09T08:31:06;99518.16;;;8.28;100.00
29505;BME280;16452;54.174;12.092;2023-01-09T08:33:32;99510.13;;;8.18;100.00
29505;BME280;16452;54.174;12.092;2023-01-09T08:35:58;99512.25;;;8.26;100.00
29505;BME280;16452;54.174;12.092;2023-01-09T08:38:23;99514.84;;;8.26;100.00
29505;BME280;16452;54.174;12.092;2023-01-09T08:40:49;99509.41;;;8.31;100.00
29505;BME280;16452;54.174;12.092;2023-01-09T08:43:15;99511.75;;;8.48;100.00
29505;BME280;16452;54.174;12.092;2023-01-09T08:46:00;99510.50;;;8.27;100.00
29505;BME280;16452;54.174;12.092;2023-01-09T08:48:45;99514.91;;;8.39;100.00
29505;BME280;16452;54.174;12.092;2023-01-09T08:51:13;99513.81;;;8.29;100.00
29505;BME280;16452;54.174;12.092;2023-01-09T08:53:39;99517.31;;;8.56;100.00
29505;BME280;16452;54.174;12.092;2023-01-09T08:56:05;99520.00;;;8.40;100.00
29505;BME280;16452;54.174;12.092;2023-01-09T08:58:31;99510.91;;;8.47;100.00
29505;BME280;16452;54.174;12.092;2023-01-09T09:00:56;99507.09;;;8.53;100.00
29505;BME280;16452;54.174;12.092;2023-01-09T09:03:23;99509.06;;;8.49;100.00
29505;BME280;16452;54.174;12.092;2023-01-09T09:05:49;99502.97;;;8.22;100.00
29505;BME280;16452;54.174;12.092;2023-01-09T09:08:15;99503.56;;;8.54;100.00
29505;BME280;16452;54.174;12.092;2023-01-09T09:10:41;99504.84;;;8.34;100.00
29505;BME280;16452;54.174;12.092;2023-01-09T09:13:07;99503.44;;;8.29;100.00
29505;BME280;16452;54.174;12.092;2023-01-09T09:15:33;99509.44;;;8.29;100.00
29505;BME280;16452;54.174;12.092;2023-01-09T09:18:02;99513.25;;;8.64;100.00
29505;BME280;16452;54.174;12.092;2023-01-09T09:20:32;99518.94;;;8.30;100.00
29505;BME280;16452;54.174;12.092;2023-01-09T09:22:59;99516.94;;;8.48;100.00
29505;BME280;16452;54.174;12.092;2023-01-09T09:25:26;99515.91;;;8.50;100.00
29505;BME280;16452;54.174;12.092;2023-01-09T09:27:52;99522.81;;;8.64;100.00
29505;BME280;16452;54.174;12.092;2023-01-09T09:30:20;99507.25;;;8.64;100.00
29505;BME280;16452;54.174;12.092;2023-01-09T09:32:46;99510.38;;;8.69;100.00
29505;BME280;16452;54.174;12.092;2023-01-09T09:35:13;99524.84;;;8.73;100.00
29505;BME280;16452;54.174;12.092;2023-01-09T09:37:39;99529.06;;;8.74;100.00
29505;BME280;16452;54.174;12.092;2023-01-09T09:40:09;99525.09;;;8.69;100.00
29505;BME280;16452;54.174;12.092;2023-01-09T09:48:35;99526.59;;;8.73;100.00
29505;BME280;16452;54.174;12.092;2023-01-09T09:51:33;99527.88;;;8.92;100.00
29505;BME280;16452;54.174;12.092;2023-01-09T09:54:20;99529.47;;;8.68;100.00
29505;BME280;16452;54.174;12.092;2023-01-09T09:56:55;99525.50;;;8.62;100.00
29505;BME280;16452;54.174;12.092;2023-01-09T09:59:30;99531.28;;;8.80;100.00
29505;BME280;16452;54.174;12.092;2023-01-09T10:05:22;99542.22;;;8.58;100.00
29505;BME280;16452;54.174;12.092;2023-01-09T10:07:50;99534.56;;;8.70;100.00
29505;BME280;16452;54.174;12.092;2023-01-09T10:10:34;99531.03;;;8.71;100.00
29505;BME280;16452;54.174;12.092;2023-01-09T10:13:03;99527.31;;;8.48;100.00
29505;BME280;16452;54.174;12.092;2023-01-09T10:26:11;99538.47;;;8.89;100.00
29505;BME280;16452;54.174;12.092;2023-01-09T10:37:46;99549.25;;;9.23;100.00
29505;BME280;16452;54.174;12.092;2023-01-09T10:40:28;99547.56;;;9.09;100.00
29505;BME280;16452;54.174;12.092;2023-01-09T10:43:05;99560.56;;;9.22;100.00
29505;BME280;16452;54.174;12.092;2023-01-09T10:45:47;99566.00;;;8.92;100.00
29505;BME280;16452;54.174;12.092;2023-01-09T10:48:32;99562.88;;;9.26;100.00
29505;BME280;16452;54.174;12.092;2023-01-09T10:51:00;99563.81;;;9.38;100.00
29505;BME280;16452;54.174;12.092;2023-01-09T10:53:33;99565.28;;;9.42;100.00
29505;BME280;16452;54.174;12.092;2023-01-09T10:56:18;99570.38;;;9.31;100.00
29505;BME280;16452;54.174;12.092;2023-01-09T10:58:46;99565.47;;;9.26;100.00
29505;BME280;16452;54.174;12.092;2023-01-09T11:01:12;99575.66;;;9.29;100.00
29505;BME280;16452;54.174;12.092;2023-01-09T11:03:38;99569.09;;;9.24;100.00
29505;BME280;16452;54.174;12.092;2023-01-09T11:06:19;99574.53;;;9.46;100.00
29505;BME280;16452;54.174;12.092;2023-01-09T11:08:48;99581.22;;;9.37;100.00
29505;BME280;16452;54.174;12.092;2023-01-09T11:14:17;99579.41;;;9.38;100.00
29505;BME280;16452;54.174;12.092;2023-01-09T11:16:58;99576.81;;;9.38;100.00
29505;BME280;16452;54.174;12.092;2023-01-09T11:19:26;99578.06;;;9.45;100.00
29505;BME280;16452;54.174;12.092;2023-01-09T11:22:16;99582.47;;;9.70;100.00
29505;BME280;16452;54.174;12.092;2023-01-09T11:24:43;99576.22;;;9.60;100.00
29505;BME280;16452;54.174;12.092;2023-01-09T11:32:41;99591.44;;;9.66;100.00
29505;BME280;16452;54.174;12.092;2023-01-09T11:35:31;99588.28;;;9.86;100.00
29505;BME280;16452;54.174;12.092;2023-01-09T11:38:14;99593.16;;;10.03;100.00
29505;BME280;16452;54.174;12.092;2023-01-09T11:41:01;99596.00;;;10.00;100.00
29505;BME280;16452;54.174;12.092;2023-01-09T11:43:37;99601.94;;;9.77;100.00
29505;BME280;16452;54.174;12.092;2023-01-09T11:46:07;99609.41;;;9.94;100.00
29505;BME280;16452;54.174;12.092;2023-01-09T11:48:38;99599.34;;;9.77;100.00
29505;BME280;16452;54.174;12.092;2023-01-09T11:51:26;99597.44;;;10.04;100.00
29505;BME280;16452;54.174;12.092;2023-01-09T11:54:26;99596.72;;;9.77;100.00
29505;BME280;16452;54.174;12.092;2023-01-09T11:56:54;99585.19;;;9.81;100.00
29505;BME280;16452;54.174;12.092;2023-01-09T11:59:24;99588.28;;;9.73;100.00
29505;BME280;16452;54.174;12.092;2023-01-09T12:10:39;99596.50;;;9.80;100.00
29505;BME280;16452;54.174;12.092;2023-01-09T12:14:00;99592.97;;;9.94;100.00
29505;BME280;16452;54.174;12.092;2023-01-09T12:19:44;99594.31;;;9.86;100.00
29505;BME280;16452;54.174;12.092;2023-01-09T12:22:27;99597.84;;;9.98;100.00
29505;BME280;16452;54.174;12.092;2023-01-09T12:44:25;99616.53;;;10.17;100.00
29505;BME280;16452;54.174;12.092;2023-01-09T12:47:26;99619.19;;;10.03;100.00
29505;BME280;16452;54.174;12.092;2023-01-09T12:53:20;99615.78;;;10.77;100.00
29505;BME280;16452;54.174;12.092;2023-01-09T12:58:48;99616.56;;;10.54;100.00
29505;BME280;16452;54.174;12.092;2023-01-09T13:01:43;99626.56;;;10.47;100.00
29505;BME280;16452;54.174;12.092;2023-01-09T13:04:23;99625.09;;;10.43;100.00
29505;BME280;16452;54.174;12.092;2023-01-09T13:07:19;99632.81;;;10.32;100.00
29505;BME280;16452;54.174;12.092;2023-01-09T13:12:38;99641.06;;;10.26;100.00
29505;BME280;16452;54.174;12.092;2023-01-09T13:15:41;99647.09;;;10.26;100.00
29505;BME280;16452;54.174;12.092;2023-01-09T13:18:28;99647.75;;;10.30;100.00
29505;BME280;16452;54.174;12.092;2023-01-09T13:20:55;99645.34;;;10.27;100.00
29505;BME280;16452;54.174;12.092;2023-01-09T13:23:57;99651.88;;;10.33;100.00
29505;BME280;16452;54.174;12.092;2023-01-09T13:26:46;99650.34;;;10.30;100.00
29505;BME280;16452;54.174;12.092;2023-01-09T13:29:23;99658.25;;;10.28;100.00
29505;BME280;16452;54.174;12.092;2023-01-09T13:32:23;99657.09;;;10.07;100.00
29505;BME280;16452;54.174;12.092;2023-01-09T13:34:55;99661.97;;;9.99;100.00
29505;BME280;16452;54.174;12.092;2023-01-09T13:37:34;99664.44;;;10.13;100.00
29505;BME280;16452;54.174;12.092;2023-01-09T13:40:24;99668.94;;;9.86;100.00
29505;BME280;16452;54.174;12.092;2023-01-09T13:43:01;99666.97;;;9.89;100.00
29505;BME280;16452;54.174;12.092;2023-01-09T13:45:32;99674.38;;;9.96;100.00
29505;BME280;16452;54.174;12.092;2023-01-09T13:50:34;99673.91;;;9.76;100.00
29505;BME280;16452;54.174;12.092;2023-01-09T13:58:55;99674.84;;;9.75;100.00
29505;BME280;16452;54.174;12.092;2023-01-09T14:06:38;99687.38;;;9.56;100.00
29505;BME280;16452;54.174;12.092;2023-01-09T14:09:20;99690.53;;;9.74;100.00
29505;BME280;16452;54.174;12.092;2023-01-09T14:11:47;99699.53;;;9.56;100.00
29505;BME280;16452;54.174;12.092;2023-01-09T14:14:30;99707.59;;;9.65;100.00
29505;BME280;16452;54.174;12.092;2023-01-09T14:16:58;99713.94;;;9.74;100.00
29505;BME280;16452;54.174;12.092;2023-01-09T14:19:37;99712.88;;;9.64;100.00
29505;BME280;16452;54.174;12.092;2023-01-09T14:22:05;99718.53;;;9.70;100.00
29505;BME280;16452;54.174;12.092;2023-01-09T14:24:52;99725.59;;;9.68;100.00
29505;BME280;16452;54.174;12.092;2023-01-09T14:41:45;99745.22;;;9.99;100.00
29505;BME280;16452;54.174;12.092;2023-01-09T14:44:53;99738.06;;;10.15;100.00
29505;BME280;16452;54.174;12.092;2023-01-09T14:48:01;99737.91;;;9.92;100.00
29505;BME280;16452;54.174;12.092;2023-01-09T14:50:47;99755.38;;;9.50;100.00
29505;BME280;16452;54.174;12.092;2023-01-09T14:53:31;99760.38;;;9.53;100.00
29505;BME280;16452;54.174;12.092;2023-01-09T14:56:02;99762.91;;;8.99;100.00
29505;BME280;16452;54.174;12.092;2023-01-09T14:58:35;99764.59;;;9.00;100.00
29505;BME280;16452;54.174;12.092;2023-01-09T15:01:03;99773.69;;;8.93;100.00
29505;BME280;16452;54.174;12.092;2023-01-09T15:06:22;99773.03;;;8.76;100.00
29505;BME280;16452;54.174;12.092;2023-01-09T15:08:59;99776.94;;;8.54;100.00
29505;BME280;16452;54.174;12.092;2023-01-09T15:11:26;99782.31;;;8.37;100.00
29505;BME280;16452;54.174;12.092;2023-01-09T15:13:53;99783.31;;;8.35;100.00
29505;BME280;16452;54.174;12.092;2023-01-09T15:16:24;99782.59;;;8.47;100.00
29505;BME280;16452;54.174;12.092;2023-01-09T15:18:57;99784.53;;;8.43;100.00
29505;BME280;16452;54.174;12.092;2023-01-09T15:21:28;99786.78;;;8.49;100.00
29505;BME280;16452;54.174;12.092;2023-01-09T15:24:23;99795.22;;;8.67;100.00
29505;BME280;16452;54.174;12.092;2023-01-09T15:27:12;99801.22;;;8.53;100.00